createdAt,value
2022-08-05T00:01:48.599Z,43.96
2022-08-05T00:04:19.648Z,44.12
2022-08-05T00:06:51.676Z,44.18
2022-08-05T00:09:21.769Z,44.25
2022-08-05T00:11:55.686Z,44.37
2022-08-05T00:14:31.923Z,44.50
2022-08-05T00:16:59.168Z,44.55
2022-08-05T00:19:33.171Z,44.75
2022-08-05T00:22:01.968Z,44.86
2022-08-05T00:24:30.966Z,44.92
2022-08-05T00:27:35.866Z,44.98
2022-08-05T00:30:05.317Z,45.19
2022-08-05T00:32:38.545Z,45.33
2022-08-05T00:35:07.832Z,45.43
2022-08-05T00:37:53.567Z,45.47
2022-08-05T00:40:26.960Z,45.75
2022-08-05T00:43:02.351Z,45.97
2022-08-05T00:45:42.996Z,45.98
2022-08-05T00:48:13.193Z,46.03
2022-08-05T00:50:47.752Z,46.46
2022-08-05T00:53:59.857Z,46.44
2022-08-05T00:56:10.131Z,46.55
2022-08-05T00:58:42.616Z,46.67
2022-08-05T01:01:14.960Z,46.64
2022-08-05T01:03:45.911Z,46.85
2022-08-05T01:06:16.949Z,46.90
2022-08-05T01:08:44.571Z,47.14
2022-08-05T01:11:37.064Z,47.08
2022-08-05T01:14:34.724Z,47.24
2022-08-05T01:17:21.089Z,47.36
2022-08-05T01:20:13.184Z,47.42
2022-08-05T01:22:59.296Z,47.38
2022-08-05T01:26:04.066Z,47.60
2022-08-05T01:28:44.798Z,47.69
2022-08-05T01:31:29.138Z,47.80
2022-08-05T01:34:09.739Z,47.84
2022-08-05T01:36:55.707Z,47.98
2022-08-05T01:39:45.827Z,48.10
2022-08-05T01:42:21.070Z,48.13
2022-08-05T01:44:54.331Z,48.29
2022-08-05T01:47:23.950Z,48.32
2022-08-05T01:50:01.612Z,48.39
2022-08-05T01:52:34.508Z,48.46
2022-08-05T01:55:08.611Z,48.47
2022-08-05T01:58:09.846Z,48.48
2022-08-05T02:00:36.466Z,48.51
2022-08-05T02:03:24.053Z,48.78
2022-08-05T02:05:59.912Z,48.78
2022-08-05T02:08:31.326Z,48.85
2022-08-05T02:11:23.677Z,48.93
2022-08-05T02:14:16.968Z,49.15
2022-08-05T02:16:57.539Z,49.10
2022-08-05T02:19:47.206Z,49.35
2022-08-05T02:22:48.102Z,49.41
2022-08-05T02:25:32.983Z,49.37
2022-08-05T02:28:28.625Z,49.64
2022-08-05T02:31:05.491Z,49.82
2022-08-05T02:33:39.252Z,49.81
2022-08-05T02:36:18.467Z,50.03
2022-08-05T02:38:53.348Z,50.15
2022-08-05T02:41:23.926Z,50.31
2022-08-05T02:44:05.953Z,50.48
2022-08-05T02:46:43.856Z,50.69
2022-08-05T02:49:25.113Z,50.83
2022-08-05T02:52:03.059Z,50.99
2022-08-05T02:54:34.890Z,51.06
2022-08-05T02:58:11.377Z,51.20
2022-08-05T03:00:07.813Z,51.34
2022-08-05T03:02:39.899Z,51.44
2022-08-05T03:05:11.330Z,51.67
2022-08-05T03:08:00.409Z,51.79
2022-08-05T03:10:28.417Z,51.81
2022-08-05T03:15:23.558Z,52.17
2022-08-05T03:17:57.881Z,52.43
2022-08-05T03:20:26.918Z,52.55
2022-08-05T03:22:57.584Z,52.83
2022-08-05T03:25:33.820Z,52.91
2022-08-05T03:28:18.864Z,53.04
2022-08-05T03:31:02.823Z,53.21
2022-08-05T03:33:50.996Z,53.41
2022-08-05T03:36:17.659Z,53.61
2022-08-05T03:39:07.301Z,53.83
2022-08-05T03:41:38.781Z,53.99
2022-08-05T03:44:19.898Z,54.08
2022-08-05T03:46:53.157Z,54.35
2022-08-05T03:49:20.224Z,54.51
2022-08-05T03:52:50.387Z,54.60
2022-08-05T03:55:54.084Z,54.79
2022-08-05T03:58:01.956Z,55.09
2022-08-05T04:00:31.753Z,55.10
2022-08-05T04:03:02.458Z,55.07
2022-08-05T04:05:34.441Z,55.09
2022-08-05T04:08:28.817Z,55.17
2022-08-05T04:10:59.102Z,55.28
2022-08-05T04:13:49.329Z,55.22
2022-08-05T04:16:14.421Z,55.33
2022-08-05T04:18:53.864Z,55.29
2022-08-05T04:22:05.136Z,55.39
2022-08-05T04:24:18.727Z,55.69
2022-08-05T04:26:50.289Z,55.49
2022-08-05T04:29:17.217Z,55.57
2022-08-05T04:31:48.342Z,55.75
2022-08-05T04:34:32.915Z,55.64
2022-08-05T04:37:08.217Z,55.64
2022-08-05T04:39:38.010Z,55.69
2022-08-05T04:42:06.800Z,55.65
2022-08-05T04:44:39.350Z,55.59
2022-08-05T04:47:20.064Z,55.59
2022-08-05T04:50:02.569Z,55.51
2022-08-05T04:52:34.490Z,55.54
2022-08-05T04:55:02.367Z,55.49
2022-08-05T04:57:47.704Z,55.46
2022-08-05T05:00:23.636Z,55.27
2022-08-05T05:02:51.268Z,55.25
2022-08-05T05:05:28.167Z,55.02
2022-08-05T05:08:26.744Z,55.03
2022-08-05T05:11:00.858Z,54.84
2022-08-05T05:13:32.353Z,54.80
2022-08-05T05:16:14.409Z,54.55
2022-08-05T05:19:02.534Z,54.38
2022-08-05T05:21:30.182Z,54.27
2022-08-05T05:24:09.143Z,54.14
2022-08-05T05:26:39.839Z,54.05
2022-08-05T05:29:14.665Z,53.65
2022-08-05T05:31:46.132Z,53.58
2022-08-05T05:34:21.219Z,53.13
2022-08-05T05:36:57.114Z,52.67
2022-08-05T05:39:34.542Z,52.50
2022-08-05T05:42:06.368Z,52.09
2022-08-05T05:44:43.202Z,51.26
2022-08-05T05:47:21.552Z,50.20
2022-08-05T05:50:01.330Z,49.41
2022-08-05T05:52:40.727Z,48.35
2022-08-05T05:55:17.081Z,47.69
2022-08-05T05:57:52.894Z,46.64
2022-08-05T06:00:21.531Z,45.41
2022-08-05T06:03:28.293Z,44.77
2022-08-05T06:05:55.564Z,44.06
2022-08-05T06:08:40.762Z,43.50
2022-08-05T06:11:07.924Z,42.93
2022-08-05T06:13:40.714Z,42.57
2022-08-05T06:16:30.286Z,42.24
2022-08-05T06:19:08.370Z,41.94
2022-08-05T06:21:38.838Z,41.86
2022-08-05T06:24:12.222Z,41.43
2022-08-05T06:26:51.227Z,40.93
2022-08-05T06:29:25.145Z,40.26
2022-08-05T06:32:25.146Z,39.80
2022-08-05T06:34:58.218Z,39.76
2022-08-05T06:37:56.137Z,39.62
2022-08-05T06:40:21.212Z,39.31
2022-08-05T06:42:51.673Z,39.09
2022-08-05T06:45:44.413Z,38.55
2022-08-05T06:48:37.245Z,38.11
2022-08-05T06:50:57.792Z,37.90
2022-08-05T06:53:27.993Z,37.53
2022-08-05T06:55:58.467Z,36.99
2022-08-05T06:58:35.419Z,36.98
2022-08-05T07:01:06.030Z,36.71
2022-08-05T07:03:34.486Z,36.43
2022-08-05T07:06:05.799Z,36.59
2022-08-05T07:08:47.998Z,36.51
2022-08-05T07:11:25.165Z,36.41
2022-08-05T07:14:15.533Z,36.40
2022-08-05T07:17:59.330Z,36.44
2022-08-05T07:22:28.921Z,36.14
2022-08-05T07:25:23.584Z,36.11
2022-08-05T07:27:57.514Z,36.02
2022-08-05T07:30:33.329Z,35.90
2022-08-05T07:33:01.747Z,35.64
2022-08-05T07:36:04.594Z,35.41
2022-08-05T07:38:32.091Z,35.94
2022-08-05T07:42:08.032Z,35.76
2022-08-05T07:43:52.761Z,35.29
2022-08-05T07:46:24.285Z,34.75
2022-08-05T07:49:02.656Z,34.63
2022-08-05T07:51:36.930Z,33.98
2022-08-05T07:54:10.043Z,33.75
2022-08-05T07:56:59.951Z,33.98
2022-08-05T07:59:38.359Z,33.87
2022-08-05T08:02:16.632Z,33.63
2022-08-05T08:04:46.794Z,33.44
2022-08-05T08:07:17.747Z,33.03
2022-08-05T08:09:47.421Z,32.71
2022-08-05T08:12:35.013Z,32.56
2022-08-05T08:15:15.756Z,31.92
2022-08-05T08:17:52.619Z,32.32
2022-08-05T08:20:59.771Z,32.12
2022-08-05T08:24:03.314Z,32.02
2022-08-05T08:26:12.438Z,31.48
2022-08-05T08:28:55.243Z,31.07
2022-08-05T08:31:26.896Z,30.84
2022-08-05T08:33:53.909Z,31.13
2022-08-05T08:36:38.428Z,31.52
2022-08-05T08:39:14.998Z,31.53
2022-08-05T08:41:52.244Z,30.79
2022-08-05T08:45:20.710Z,30.38
2022-08-05T08:48:06.277Z,30.07
2022-08-05T08:50:30.438Z,30.39
2022-08-05T08:53:12.036Z,30.61
2022-08-05T08:56:04.183Z,30.84
2022-08-05T08:58:43.058Z,30.83
2022-08-05T09:01:16.335Z,31.25
2022-08-05T09:03:55.449Z,31.39
2022-08-05T09:06:30.258Z,31.56
2022-08-05T09:09:00.096Z,30.84
2022-08-05T09:11:50.872Z,30.68
2022-08-05T09:14:58.319Z,30.65
2022-08-05T09:17:09.714Z,30.40
2022-08-05T09:20:02.729Z,30.35
2022-08-05T09:23:07.966Z,30.56
2022-08-05T09:26:02.469Z,30.55
2022-08-05T09:28:31.977Z,29.86
2022-08-05T09:31:43.405Z,28.65
2022-08-05T09:34:01.265Z,29.02
2022-08-05T09:36:55.377Z,28.82
2022-08-05T09:39:41.829Z,28.54
2022-08-05T09:42:23.486Z,28.63
2022-08-05T09:44:56.036Z,28.55
2022-08-05T09:47:28.662Z,28.65
2022-08-05T09:50:18.202Z,28.70
2022-08-05T09:53:01.342Z,28.83
2022-08-05T09:55:56.650Z,28.43
2022-08-05T09:58:27.021Z,28.66
2022-08-05T10:01:07.287Z,28.42
2022-08-05T10:03:59.977Z,28.78
2022-08-05T10:06:27.991Z,28.85
2022-08-05T10:09:27.615Z,28.22
2022-08-05T10:12:18.630Z,27.85
2022-08-05T10:15:35.129Z,27.62
2022-08-05T10:18:03.696Z,27.13
2022-08-05T10:20:33.064Z,27.26
2022-08-05T10:23:01.296Z,26.93
2022-08-05T10:25:28.674Z,26.37
2022-08-05T10:28:09.576Z,26.06
2022-08-05T10:32:53.121Z,26.04
2022-08-05T10:33:35.102Z,25.34
2022-08-05T10:36:04.082Z,25.27
2022-08-05T10:38:35.026Z,25.29
2022-08-05T10:41:12.460Z,24.98
2022-08-05T10:43:57.052Z,24.66
2022-08-05T10:46:44.626Z,24.12
2022-08-05T10:49:16.802Z,24.06
2022-08-05T10:51:59.757Z,23.74
2022-08-05T10:54:56.855Z,23.22
2022-08-05T10:57:32.287Z,23.01
2022-08-05T11:00:13.355Z,22.85
2022-08-05T11:03:24.776Z,22.45
2022-08-05T11:06:16.155Z,22.53
2022-08-05T11:09:17.330Z,22.48
2022-08-05T11:11:52.602Z,22.05
2022-08-05T11:15:01.008Z,21.98
2022-08-05T11:17:57.884Z,22.33
2022-08-05T11:20:34.061Z,21.88
2022-08-05T11:23:20.852Z,21.42
2022-08-05T11:26:10.094Z,21.87
2022-08-05T11:28:43.796Z,21.43
2022-08-05T11:31:54.541Z,21.28
2022-08-05T11:34:04.182Z,21.68
2022-08-05T11:36:52.952Z,21.95
2022-08-05T11:40:00.557Z,22.10
2022-08-05T11:42:37.773Z,21.94
2022-08-05T11:45:23.158Z,21.82
2022-08-05T11:47:58.121Z,21.60
2022-08-05T11:50:26.087Z,21.57
2022-08-05T11:52:57.687Z,21.49
2022-08-05T11:55:31.687Z,21.39
2022-08-05T11:58:10.616Z,21.30
2022-08-05T12:00:41.207Z,21.46
2022-08-05T12:03:28.548Z,21.72
2022-08-05T12:06:05.958Z,21.85
2022-08-05T12:08:36.921Z,21.77
2022-08-05T12:11:20.506Z,22.28
2022-08-05T12:13:55.514Z,22.48
2022-08-05T12:16:34.162Z,22.31
2022-08-05T12:19:08.189Z,22.65
2022-08-05T12:21:43.502Z,22.62
2022-08-05T12:24:24.718Z,22.65
2022-08-05T12:26:53.797Z,22.79
2022-08-05T12:29:23.714Z,22.76
2022-08-05T12:31:57.384Z,22.96
2022-08-05T12:34:30.697Z,22.68
2022-08-05T12:37:00.527Z,22.19
2022-08-05T12:39:37.288Z,22.15
2022-08-05T12:42:15.823Z,21.58
2022-08-05T12:44:44.369Z,21.38
2022-08-05T12:47:13.532Z,21.66
2022-08-05T12:50:04.464Z,22.22
2022-08-05T12:52:38.802Z,22.27
2022-08-05T12:55:23.244Z,22.56
2022-08-05T12:58:50.693Z,22.55
2022-08-05T13:02:04.163Z,22.88
2022-08-05T13:03:41.787Z,23.06
2022-08-05T13:06:16.551Z,23.16
2022-08-05T13:08:52.227Z,23.15
2022-08-05T13:12:02.018Z,23.34
2022-08-05T13:14:24.850Z,23.57
2022-08-05T13:17:09.868Z,23.39
2022-08-05T13:19:50.912Z,23.58
2022-08-05T13:22:28.155Z,24.39
2022-08-05T13:25:00.858Z,24.33
2022-08-05T13:27:39.723Z,24.06
2022-08-05T13:30:35.314Z,24.33
2022-08-05T13:33:01.254Z,23.94
2022-08-05T13:35:43.282Z,24.38
2022-08-05T13:38:30.650Z,24.45
2022-08-05T13:41:03.674Z,24.23
2022-08-05T13:43:44.683Z,24.50
2022-08-05T13:46:30.752Z,24.54
2022-08-05T13:49:05.739Z,24.42
2022-08-05T13:51:41.802Z,24.61
2022-08-05T13:54:15.903Z,24.60
2022-08-05T13:56:51.450Z,24.71
2022-08-05T13:59:27.348Z,25.36
2022-08-05T14:02:00.349Z,25.54
2022-08-05T14:04:49.598Z,26.10
2022-08-05T14:08:00.457Z,26.76
2022-08-05T14:10:28.739Z,27.12
2022-08-05T14:12:57.077Z,27.15
2022-08-05T14:16:05.045Z,27.30
2022-08-05T14:18:18.214Z,27.32
2022-08-05T14:20:48.007Z,27.11
2022-08-05T14:23:24.522Z,26.89
2022-08-05T14:25:58.909Z,26.64
2022-08-05T14:28:29.023Z,26.58
2022-08-05T14:31:00.775Z,26.92
2022-08-05T14:33:56.514Z,27.01
2022-08-05T14:36:21.363Z,27.16
2022-08-05T14:38:50.418Z,27.44
2022-08-05T14:41:25.786Z,28.00
2022-08-05T14:44:01.976Z,28.45
2022-08-05T14:46:36.960Z,28.89
2022-08-05T14:49:06.379Z,29.20
2022-08-05T14:51:38.577Z,29.69
2022-08-05T14:54:30.234Z,30.38
2022-08-05T14:56:59.780Z,30.92
2022-08-05T14:59:29.398Z,30.90
2022-08-05T15:02:03.498Z,31.02
2022-08-05T15:04:43.383Z,31.23
2022-08-05T15:08:04.579Z,31.00
2022-08-05T15:10:01.343Z,31.12
2022-08-05T15:12:57.677Z,31.50
2022-08-05T15:15:54.867Z,31.35
2022-08-05T15:18:10.506Z,31.33
2022-08-05T15:20:46.048Z,31.47
2022-08-05T15:23:16.281Z,31.65
2022-08-05T15:25:52.225Z,32.74
2022-08-05T15:28:27.235Z,34.54
2022-08-05T15:30:55.835Z,35.78
2022-08-05T15:34:05.742Z,36.20
2022-08-05T15:36:17.249Z,36.68
2022-08-05T15:40:41.148Z,36.40
2022-08-05T15:41:58.235Z,36.08
2022-08-05T15:44:28.041Z,35.72
2022-08-05T15:47:01.216Z,35.30
2022-08-05T15:49:48.265Z,35.32
2022-08-05T15:52:16.898Z,35.01
2022-08-05T15:55:03.816Z,35.15
2022-08-05T15:57:34.564Z,35.40
2022-08-05T16:00:06.005Z,35.23
2022-08-05T16:02:33.709Z,35.17
2022-08-05T16:05:04.124Z,35.28
2022-08-05T16:07:35.955Z,35.17
2022-08-05T16:10:04.277Z,35.36
2022-08-05T16:12:36.744Z,36.04
2022-08-05T16:15:11.222Z,36.64
2022-08-05T16:17:57.435Z,37.29
2022-08-05T16:20:29.305Z,37.90
2022-08-05T16:23:03.690Z,38.34
2022-08-05T16:25:41.525Z,38.65
2022-08-05T16:28:09.762Z,38.78
2022-08-05T16:30:37.716Z,38.69
2022-08-05T16:33:04.952Z,38.60
2022-08-05T16:35:34.629Z,38.45
2022-08-05T16:38:25.248Z,38.12
2022-08-05T16:41:00.445Z,38.36
2022-08-05T16:43:30.876Z,38.39
2022-08-05T16:46:04.607Z,38.87
2022-08-05T16:48:41.794Z,38.75
2022-08-05T16:51:10.843Z,38.84
2022-08-05T16:54:05.301Z,39.14
2022-08-05T16:56:33.205Z,39.35
2022-08-05T16:59:08.499Z,39.56
2022-08-05T17:01:53.038Z,39.81
2022-08-05T17:04:31.103Z,39.58
2022-08-05T17:07:01.852Z,39.92
2022-08-05T17:09:57.210Z,39.97
2022-08-05T17:12:51.298Z,40.03
2022-08-05T17:15:19.897Z,40.33
2022-08-05T17:17:55.057Z,40.28
2022-08-05T17:20:25.095Z,40.45
2022-08-05T17:22:55.341Z,40.68
2022-08-05T17:25:39.278Z,40.64
2022-08-05T17:28:11.068Z,41.06
2022-08-05T17:30:51.845Z,41.30
2022-08-05T17:33:28.292Z,41.70
2022-08-05T17:36:09.197Z,41.95
2022-08-05T17:38:56.285Z,41.96
2022-08-05T17:42:19.628Z,42.07
2022-08-05T17:44:41.419Z,42.24
2022-08-05T17:47:22.160Z,42.64
2022-08-05T17:50:04.264Z,42.75
2022-08-05T17:52:52.969Z,43.12
2022-08-05T17:55:34.449Z,43.19
2022-08-05T17:58:09.608Z,43.42
2022-08-05T18:00:47.224Z,43.62
2022-08-05T18:03:58.974Z,43.69
2022-08-05T18:06:15.163Z,43.75
2022-08-05T18:08:46.098Z,44.04
2022-08-05T18:11:23.636Z,44.17
2022-08-05T18:14:03.485Z,44.19
2022-08-05T18:16:32.403Z,44.21
2022-08-05T18:19:03.484Z,44.38
2022-08-05T18:22:08.396Z,44.45
2022-08-05T18:24:17.713Z,44.49
2022-08-05T18:26:44.905Z,44.65
2022-08-05T18:29:15.034Z,44.89
2022-08-05T18:31:46.763Z,44.94
2022-08-05T18:34:21.767Z,45.30
2022-08-05T18:36:49.627Z,45.53
2022-08-05T18:39:41.781Z,45.78
2022-08-05T18:42:09.006Z,46.09
2022-08-05T18:44:51.758Z,46.33
2022-08-05T18:47:56.379Z,46.46
2022-08-05T18:50:46.414Z,46.70
2022-08-05T18:53:19.308Z,46.97
2022-08-05T18:55:49.811Z,47.36
2022-08-05T18:58:18.346Z,47.61
2022-08-05T19:00:54.129Z,47.98
2022-08-05T19:03:54.879Z,48.10
2022-08-05T19:06:22.191Z,48.36
2022-08-05T19:09:01.479Z,48.49
2022-08-05T19:11:37.202Z,48.69
2022-08-05T19:14:37.539Z,48.86
2022-08-05T19:17:06.309Z,48.95
2022-08-05T19:19:35.036Z,49.25
2022-08-05T19:22:02.310Z,49.32
2022-08-05T19:24:34.648Z,49.57
2022-08-05T19:27:04.245Z,49.85
2022-08-05T19:29:35.992Z,50.15
2022-08-05T19:32:11.145Z,50.18
2022-08-05T19:34:38.674Z,50.71
2022-08-05T19:37:06.547Z,50.75
2022-08-05T19:39:45.697Z,50.73
2022-08-05T19:42:19.654Z,50.66
2022-08-05T19:45:05.840Z,51.06
2022-08-05T19:47:34.536Z,51.31
2022-08-05T19:50:07.538Z,51.29
2022-08-05T19:52:37.405Z,51.55
2022-08-05T19:55:07.209Z,51.59
2022-08-05T19:58:06.740Z,52.03
2022-08-05T20:00:39.064Z,51.99
2022-08-05T20:03:08.745Z,52.38
2022-08-05T20:05:43.093Z,52.77
2022-08-05T20:08:10.624Z,53.13
2022-08-05T20:10:43.311Z,53.35
2022-08-05T20:13:11.691Z,53.50
2022-08-05T20:15:52.575Z,54.06
2022-08-05T20:18:32.802Z,54.43
2022-08-05T20:21:04.800Z,54.53
2022-08-05T20:23:39.293Z,54.92
2022-08-05T20:26:17.767Z,55.40
2022-08-05T20:28:49.800Z,55.81
2022-08-05T20:31:21.956Z,56.36
2022-08-05T20:33:55.607Z,56.90
2022-08-05T20:36:23.816Z,57.41
2022-08-05T20:38:54.282Z,57.79
2022-08-05T20:41:26.992Z,58.86
2022-08-05T20:43:58.711Z,58.95
2022-08-05T20:46:29.698Z,59.91
2022-08-05T20:48:56.584Z,60.28
2022-08-05T20:51:23.459Z,60.87
2022-08-05T20:53:56.533Z,60.84
2022-08-05T20:56:30.869Z,61.19
2022-08-05T20:59:14.301Z,62.07
2022-08-05T21:01:47.146Z,62.91
2022-08-05T21:04:17.920Z,62.98
2022-08-05T21:06:45.805Z,63.30
2022-08-05T21:09:16.648Z,63.74
2022-08-05T21:12:10.094Z,64.03
2022-08-05T21:14:34.903Z,65.09
2022-08-05T21:17:06.173Z,65.20
2022-08-05T21:19:47.159Z,65.41
2022-08-05T21:22:18.827Z,65.43
2022-08-05T21:24:53.756Z,65.63
2022-08-05T21:27:27.806Z,65.82
2022-08-05T21:30:06.756Z,66.03
2022-08-05T21:32:35.672Z,66.88
2022-08-05T21:35:08.409Z,66.70
2022-08-05T21:37:47.269Z,66.80
2022-08-05T21:40:16.456Z,66.77
2022-08-05T21:42:44.036Z,67.36
2022-08-05T21:45:14.468Z,68.08
2022-08-05T21:47:57.086Z,67.83
2022-08-05T21:50:26.054Z,68.14
2022-08-05T21:52:53.875Z,68.00
2022-08-05T21:56:01.668Z,67.89
2022-08-05T21:58:30.662Z,68.13
2022-08-05T22:01:04.147Z,68.17
2022-08-05T22:03:48.877Z,68.14
2022-08-05T22:06:22.292Z,68.36
2022-08-05T22:09:14.589Z,68.48
2022-08-05T22:11:47.115Z,68.54
2022-08-05T22:14:33.885Z,68.75
2022-08-05T22:17:07.420Z,68.85
2022-08-05T22:20:03.375Z,68.95
2022-08-05T22:22:27.028Z,68.80
2022-08-05T22:25:40.849Z,68.83
2022-08-05T22:28:15.527Z,68.83
2022-08-05T22:30:56.679Z,68.99
2022-08-05T22:33:58.343Z,69.04
2022-08-05T22:36:29.296Z,69.57
2022-08-05T22:38:56.973Z,69.34
2022-08-05T22:42:09.665Z,69.46
2022-08-05T22:44:53.779Z,69.42
2022-08-05T22:47:29.556Z,69.43
2022-08-05T22:50:19.231Z,69.73
2022-08-05T22:52:51.441Z,69.55
2022-08-05T22:55:21.452Z,70.28
2022-08-05T22:58:14.705Z,69.91
2022-08-05T23:00:41.670Z,70.32
2022-08-05T23:03:08.784Z,70.86
2022-08-05T23:05:59.280Z,71.01
2022-08-05T23:08:27.942Z,70.87
2022-08-05T23:10:55.032Z,70.69
2022-08-05T23:13:23.591Z,71.01
2022-08-05T23:15:50.551Z,71.20
2022-08-05T23:18:20.054Z,71.05
2022-08-05T23:20:49.881Z,71.30
2022-08-05T23:23:16.761Z,71.24
2022-08-05T23:25:53.687Z,71.19
2022-08-05T23:28:27.648Z,71.13
2022-08-05T23:31:16.297Z,70.88
2022-08-05T23:34:05.284Z,71.15
2022-08-05T23:36:40.332Z,71.06
2022-08-05T23:39:17.339Z,71.22
2022-08-05T23:42:03.156Z,70.78
2022-08-05T23:44:35.491Z,70.97
2022-08-05T23:47:15.886Z,70.49
2022-08-05T23:49:44.197Z,70.33
2022-08-05T23:52:31.737Z,70.41
2022-08-05T23:55:05.407Z,69.85
2022-08-05T23:57:38.675Z,69.73
